Time;durP1;ratioP1;P1;durP2;ratioP2;P2;SDS_P1;SDS_P2;PMS_P1;PMS_P2;Temp;Humidity;BMP_temperature;BMP_pressure;BME280_temperature;BME280_humidity;BME280_pressure;Samples;Min_cycle;Max_cycle;Signal;HPM_P1;HPM_P2
2022/05/21 00:01:53;;;;;;;6.55;3.00;;;11.50;99.90;;;;;;4974310;28;20043;-82
2022/05/21 00:04:18;;;;;;;7.10;3.50;;;11.50;99.90;;;;;;4989580;28;20165;-81
2022/05/21 00:06:44;;;;;;;8.88;3.33;;;11.50;99.90;;;;;;4975444;28;20061;-82
2022/05/21 00:09:11;;;;;;;7.60;3.85;;;11.70;99.90;;;;;;4957662;28;20038;-83
2022/05/21 00:11:38;;;;;;;7.75;4.30;;;11.50;99.90;;;;;;4974050;28;20038;-83
2022/05/21 00:14:04;;;;;;;10.38;4.53;;;11.60;99.90;;;;;;4971467;28;20533;-82
2022/05/21 00:16:30;;;;;;;8.40;4.50;;;11.60;99.90;;;;;;4972731;28;20062;-82
2022/05/21 00:18:56;;;;;;;9.43;4.22;;;11.50;99.90;;;;;;4989018;28;20100;-84
2022/05/21 00:21:23;;;;;;;8.77;4.70;;;11.60;99.90;;;;;;4954692;28;20046;-82
2022/05/21 00:23:50;;;;;;;12.30;5.75;;;11.50;99.90;;;;;;4972091;28;20461;-82
2022/05/21 00:26:17;;;;;;;8.18;4.97;;;11.60;99.90;;;;;;4970330;28;20129;-83
2022/05/21 00:28:45;;;;;;;9.07;6.28;;;11.50;99.90;;;;;;4973111;28;20133;-82
2022/05/21 00:31:13;;;;;;;8.82;5.82;;;11.60;99.90;;;;;;4973539;28;20105;-83
2022/05/21 00:33:43;;;;;;;10.05;6.85;;;11.50;99.90;;;;;;4973635;28;20468;-82
2022/05/21 00:36:09;;;;;;;13.32;8.80;;;11.60;99.90;;;;;;4953137;28;20070;-82
2022/05/21 00:38:37;;;;;;;14.77;9.65;;;11.50;99.90;;;;;;4971096;28;20493;-83
2022/05/21 00:41:03;;;;;;;17.73;11.25;;;11.60;99.90;;;;;;4970021;28;20046;-82
2022/05/21 00:43:33;;;;;;;19.17;10.98;;;11.50;99.90;;;;;;4971276;28;20081;-83
2022/05/21 00:45:59;;;;;;;21.38;12.93;;;11.70;99.90;;;;;;4972413;28;20038;-83
2022/05/21 00:48:25;;;;;;;22.35;12.48;;;11.80;99.90;;;;;;4969919;28;20050;-82
2022/05/21 00:50:52;;;;;;;22.17;13.32;;;11.90;99.90;;;;;;4968446;28;20823;-83
2022/05/21 00:53:18;;;;;;;25.55;15.13;;;11.90;99.90;;;;;;4968341;28;20046;-82
2022/05/21 00:55:44;;;;;;;22.75;14.10;;;11.90;99.90;;;;;;4967173;28;21858;-82
2022/05/21 01:01:01;;;;;;;26.63;15.70;;;12.00;99.90;;;;;;4972893;28;20058;-82
2022/05/21 01:03:29;;;;;;;21.92;15.82;;;12.00;99.90;;;;;;4985312;28;20054;-83
2022/05/21 01:05:55;;;;;;;23.10;15.70;;;12.00;99.90;;;;;;4965918;28;20050;-83
2022/05/21 01:08:21;;;;;;;34.97;17.48;;;12.00;99.90;;;;;;4984925;28;20065;-82
2022/05/21 01:10:51;;;;;;;28.98;16.25;;;12.00;99.90;;;;;;4987451;28;20042;-81
2022/05/21 01:13:21;;;;;;;25.98;17.23;;;12.00;99.90;;;;;;4958606;28;20038;-84
2022/05/21 01:15:51;;;;;;;25.02;17.30;;;12.00;99.90;;;;;;4985463;28;20076;-81
2022/05/21 01:18:24;;;;;;;26.20;17.92;;;12.10;99.90;;;;;;5005035;28;20042;-82
2022/05/21 01:20:56;;;;;;;26.73;19.80;;;12.10;99.90;;;;;;4986320;28;20121;-82
2022/05/21 01:23:22;;;;;;;26.48;19.88;;;12.10;99.90;;;;;;4970384;28;20188;-82
2022/05/21 01:25:50;;;;;;;25.30;18.95;;;12.20;99.90;;;;;;4969306;28;20138;-81
2022/05/21 01:28:19;;;;;;;30.60;21.48;;;12.20;99.90;;;;;;4987443;28;20642;-83
2022/05/21 01:30:50;;;;;;;30.27;21.00;;;12.20;99.90;;;;;;4987753;28;20408;-82
2022/05/21 01:33:20;;;;;;;28.40;21.58;;;12.20;99.90;;;;;;4972394;28;20054;-82
2022/05/21 01:35:46;;;;;;;36.47;22.45;;;12.20;99.90;;;;;;4972788;28;20462;-83
2022/05/21 01:38:13;;;;;;;29.10;20.90;;;12.20;99.90;;;;;;4965736;28;20133;-83
2022/05/21 01:40:39;;;;;;;36.28;22.25;;;12.10;99.90;;;;;;4961204;28;20784;-82
2022/05/21 01:45:53;;;;;;;30.50;21.87;;;12.20;99.90;;;;;;4965456;28;20082;-82
2022/05/21 01:48:21;;;;;;;36.67;23.63;;;12.20;99.90;;;;;;4969222;28;20061;-82
2022/05/21 01:50:47;;;;;;;36.78;21.60;;;12.30;99.90;;;;;;4966070;28;20046;-82
2022/05/21 01:53:12;;;;;;;36.90;22.02;;;12.30;99.90;;;;;;4968000;28;20084;-81
2022/05/21 01:55:39;;;;;;;35.47;21.92;;;12.30;99.90;;;;;;4967169;28;20144;-82
2022/05/21 01:58:05;;;;;;;28.50;20.70;;;12.70;99.90;;;;;;4985300;28;20038;-82
2022/05/21 02:00:30;;;;;;;30.98;20.48;;;12.40;99.90;;;;;;4965882;28;20046;-82
2022/05/21 02:02:56;;;;;;;30.98;20.95;;;12.40;99.90;;;;;;4954465;28;20046;-85
2022/05/21 02:05:22;;;;;;;29.60;21.90;;;12.40;99.90;;;;;;4969771;28;20056;-83
2022/05/21 02:07:47;;;;;;;35.03;21.00;;;12.50;99.90;;;;;;4952807;28;20436;-82
2022/05/21 02:10:13;;;;;;;32.78;21.63;;;12.60;99.90;;;;;;4951233;28;20046;-83
2022/05/21 02:12:39;;;;;;;33.50;21.90;;;12.50;99.90;;;;;;4979039;28;20071;-81
2022/05/21 02:15:06;;;;;;;27.55;20.67;;;12.50;99.90;;;;;;4966991;28;20541;-83
2022/05/21 02:17:32;;;;;;;36.08;21.85;;;12.70;99.90;;;;;;4967763;28;20042;-82
2022/05/21 02:19:58;;;;;;;28.55;22.17;;;12.60;99.90;;;;;;4981994;28;20038;-84
2022/05/21 02:22:23;;;;;;;30.27;21.63;;;12.70;99.90;;;;;;4966810;28;20030;-83
2022/05/21 02:24:49;;;;;;;29.75;23.33;;;12.70;99.90;;;;;;4965670;28;20049;-83
2022/05/21 02:27:16;;;;;;;30.25;22.52;;;12.70;99.90;;;;;;4966243;28;20420;-81
2022/05/21 02:29:42;;;;;;;30.75;22.08;;;12.60;99.90;;;;;;4954298;28;20066;-82
2022/05/21 02:32:10;;;;;;;31.15;23.73;;;12.70;99.90;;;;;;4965094;28;20125;-83
2022/05/21 02:34:36;;;;;;;31.38;22.98;;;12.70;99.90;;;;;;4966441;28;20038;-82
2022/05/21 02:39:45;;;;;;;29.80;22.17;;;12.80;99.90;;;;;;4965837;28;20109;-82
2022/05/21 02:44:56;;;;;;;30.80;22.77;;;12.80;99.90;;;;;;4968435;28;20046;-83
2022/05/21 02:47:23;;;;;;;34.15;23.70;;;12.80;99.90;;;;;;4967361;28;20042;-83
2022/05/21 02:49:49;;;;;;;29.38;21.92;;;12.90;99.90;;;;;;4985616;28;20110;-82
2022/05/21 02:52:17;;;;;;;36.63;21.40;;;12.80;99.90;;;;;;4966970;28;20156;-83
2022/05/21 02:54:43;;;;;;;35.75;22.90;;;12.90;99.90;;;;;;4985632;28;20109;-83
2022/05/21 02:57:10;;;;;;;38.53;23.52;;;12.90;99.90;;;;;;4963274;28;20460;-82
2022/05/21 02:59:37;;;;;;;27.80;20.30;;;12.90;99.90;;;;;;4964964;28;20092;-82
2022/05/21 03:02:03;;;;;;;30.88;19.58;;;12.90;99.90;;;;;;4968107;28;20042;-83
2022/05/21 03:04:29;;;;;;;34.65;19.95;;;12.90;99.90;;;;;;4971662;28;20043;-83
2022/05/21 03:06:54;;;;;;;31.45;20.00;;;12.90;99.90;;;;;;4951420;28;20689;-85
2022/05/21 03:12:05;;;;;;;25.35;18.00;;;13.00;99.90;;;;;;4964443;28;20073;-83
2022/05/21 03:14:30;;;;;;;29.08;19.58;;;13.10;99.90;;;;;;4968406;28;20035;-82
2022/05/21 03:16:59;;;;;;;34.17;20.65;;;13.10;99.90;;;;;;4980805;28;20048;-84
2022/05/21 03:19:30;;;;;;;26.73;18.23;;;13.10;99.90;;;;;;4968175;28;20138;-82
2022/05/21 03:21:57;;;;;;;34.58;19.33;;;13.10;99.90;;;;;;4967346;28;20471;-84
2022/05/21 03:24:23;;;;;;;27.85;18.08;;;13.10;99.90;;;;;;4974083;28;20057;-82
2022/05/21 03:26:49;;;;;;;29.17;17.67;;;13.00;99.90;;;;;;4983768;28;20074;-82
2022/05/21 03:29:14;;;;;;;25.25;18.17;;;13.10;99.90;;;;;;4981245;28;20062;-83
2022/05/21 03:31:40;;;;;;;31.58;16.48;;;13.10;99.90;;;;;;4967821;28;20710;-82
2022/05/21 03:34:05;;;;;;;28.02;16.48;;;13.10;99.90;;;;;;4970673;28;20042;-82
2022/05/21 03:36:32;;;;;;;27.95;15.88;;;13.10;99.90;;;;;;4970900;28;20045;-82
2022/05/21 03:38:58;;;;;;;25.33;15.90;;;13.20;99.90;;;;;;4969982;28;20066;-84
2022/05/21 03:41:26;;;;;;;22.85;13.90;;;13.20;99.90;;;;;;4971465;28;20275;-85
2022/05/21 03:43:52;;;;;;;30.10;13.82;;;13.20;99.90;;;;;;4990684;28;20525;-82
2022/05/21 03:46:18;;;;;;;32.85;13.40;;;13.20;99.90;;;;;;4973470;28;20049;-83
2022/05/21 03:48:44;;;;;;;21.95;11.20;;;13.30;99.90;;;;;;4973936;28;20053;-84
2022/05/21 03:51:10;;;;;;;25.42;8.00;;;13.20;99.90;;;;;;4969083;28;20038;-82
2022/05/21 03:53:36;;;;;;;22.58;6.47;;;13.40;99.90;;;;;;4972136;28;20122;-83
2022/05/21 03:56:02;;;;;;;17.85;5.10;;;13.30;99.90;;;;;;4974485;28;20589;-86
2022/05/21 03:58:28;;;;;;;25.13;6.35;;;13.70;99.90;;;;;;4992603;28;20042;-85
2022/05/21 04:00:54;;;;;;;16.17;5.10;;;13.50;99.90;;;;;;4990703;28;20046;-84
2022/05/21 04:03:19;;;;;;;22.45;5.35;;;13.50;99.90;;;;;;4986350;28;20042;-82
2022/05/21 04:05:45;;;;;;;20.98;4.55;;;13.40;99.90;;;;;;4974237;28;20046;-82
2022/05/21 04:08:11;;;;;;;15.55;3.80;;;13.40;99.90;;;;;;4972464;28;20230;-83
2022/05/21 04:10:37;;;;;;;18.60;3.58;;;13.50;99.90;;;;;;4955715;28;20047;-83
2022/05/21 04:13:02;;;;;;;18.80;3.70;;;13.70;99.90;;;;;;4989763;28;20050;-82
2022/05/21 04:15:28;;;;;;;17.65;4.15;;;13.50;99.90;;;;;;4972423;28;20069;-85
2022/05/21 04:17:53;;;;;;;19.95;4.20;;;13.40;99.90;;;;;;4968844;28;20042;-85
2022/05/21 04:20:23;;;;;;;18.48;4.38;;;13.50;99.90;;;;;;4972248;28;20082;-83
2022/05/21 04:22:49;;;;;;;16.20;3.63;;;13.50;99.90;;;;;;4965940;28;20581;-82
2022/05/21 04:25:15;;;;;;;21.60;3.72;;;13.50;99.90;;;;;;4972009;28;20098;-84
2022/05/21 04:27:41;;;;;;;17.15;3.67;;;13.50;99.90;;;;;;4985111;28;20039;-83
2022/05/21 04:30:11;;;;;;;17.25;3.20;;;13.50;99.90;;;;;;4971481;28;20149;-82
2022/05/21 04:32:37;;;;;;;16.25;3.40;;;13.40;99.90;;;;;;4968926;28;20503;-82
2022/05/21 04:35:03;;;;;;;23.40;4.32;;;13.50;99.90;;;;;;4955714;28;20038;-83
2022/05/21 04:37:28;;;;;;;19.95;3.20;;;13.50;99.90;;;;;;4954727;28;20077;-82
2022/05/21 04:39:54;;;;;;;15.80;3.50;;;13.50;99.90;;;;;;4973492;28;20692;-84
2022/05/21 04:42:19;;;;;;;22.73;4.05;;;13.50;99.90;;;;;;4972499;28;20042;-84
2022/05/21 04:44:45;;;;;;;18.48;3.38;;;13.50;99.90;;;;;;4989699;28;20053;-85
2022/05/21 04:47:11;;;;;;;19.35;2.85;;;13.50;99.90;;;;;;4968130;28;20051;-83
2022/05/21 04:49:36;;;;;;;16.63;3.05;;;13.60;99.90;;;;;;4971683;28;20133;-82
2022/05/21 04:52:03;;;;;;;11.60;2.05;;;13.60;99.90;;;;;;4990932;28;20038;-82
2022/05/21 04:54:30;;;;;;;11.93;2.80;;;13.60;99.90;;;;;;4986068;28;20050;-81
2022/05/21 04:56:55;;;;;;;22.63;3.00;;;13.60;99.90;;;;;;4967534;28;20038;-82
2022/05/21 04:59:21;;;;;;;13.65;3.00;;;13.60;99.90;;;;;;4973047;28;20117;-82
2022/05/21 05:01:47;;;;;;;15.23;2.58;;;13.60;99.90;;;;;;4957463;28;20042;-83
2022/05/21 05:04:12;;;;;;;22.10;4.10;;;13.60;99.90;;;;;;4967573;28;20497;-82
2022/05/21 05:06:38;;;;;;;18.80;3.35;;;13.70;99.90;;;;;;4970725;28;20047;-83
2022/05/21 05:09:07;;;;;;;16.58;2.72;;;14.20;99.90;;;;;;4971071;28;20049;-82
2022/05/21 05:11:33;;;;;;;14.55;2.60;;;14.00;99.90;;;;;;4973851;28;20074;-83
2022/05/21 05:13:59;;;;;;;15.18;2.22;;;14.00;99.90;;;;;;4965893;28;20129;-85
2022/05/21 05:16:25;;;;;;;15.15;2.97;;;13.90;99.90;;;;;;4972220;28;20121;-82
2022/05/21 05:18:50;;;;;;;15.57;2.30;;;14.00;99.90;;;;;;4971218;28;20070;-82
2022/05/21 05:21:16;;;;;;;13.57;2.22;;;14.00;99.90;;;;;;4954258;28;20115;-82
2022/05/21 05:23:44;;;;;;;12.52;2.50;;;14.10;99.90;;;;;;4971080;28;20073;-85
2022/05/21 05:26:10;;;;;;;17.42;3.08;;;14.20;99.90;;;;;;4968024;28;20038;-82
2022/05/21 05:28:35;;;;;;;15.27;2.45;;;14.20;99.90;;;;;;4954944;28;20066;-82
2022/05/21 05:31:01;;;;;;;12.55;2.13;;;14.30;99.90;;;;;;4975024;28;20313;-85
2022/05/21 05:33:29;;;;;;;13.23;2.22;;;14.40;99.90;;;;;;4975460;28;20038;-83
2022/05/21 05:35:54;;;;;;;10.10;2.53;;;14.60;99.90;;;;;;4993458;28;20098;-84
2022/05/21 05:38:22;;;;;;;13.48;1.98;;;14.80;99.90;;;;;;4989587;28;20046;-81
2022/05/21 05:40:50;;;;;;;13.73;2.30;;;15.10;99.90;;;;;;4993390;28;20034;-82
2022/05/21 05:43:17;;;;;;;12.10;2.72;;;14.80;99.90;;;;;;4970971;28;20161;-82
2022/05/21 05:45:44;;;;;;;17.75;2.75;;;15.20;99.90;;;;;;4971524;28;20050;-82
2022/05/21 05:48:09;;;;;;;14.60;2.50;;;15.20;99.90;;;;;;4966645;28;20055;-82
2022/05/21 05:50:35;;;;;;;14.25;2.10;;;15.20;99.90;;;;;;4983087;28;20511;-82
2022/05/21 05:53:03;;;;;;;12.02;2.80;;;15.20;99.90;;;;;;4956379;28;20488;-83
2022/05/21 05:55:30;;;;;;;11.07;2.30;;;15.10;99.90;;;;;;4955260;28;20057;-84
2022/05/21 05:57:56;;;;;;;12.75;2.17;;;15.00;99.90;;;;;;4970770;28;20370;-83
2022/05/21 06:00:22;;;;;;;14.82;2.63;;;15.00;99.90;;;;;;4955903;28;20031;-83
2022/05/21 06:02:59;;;;;;;10.90;2.38;;;15.10;99.90;;;;;;4968272;28;20073;-82
2022/05/21 06:05:29;;;;;;;13.95;3.20;;;15.30;99.90;;;;;;4962926;28;20034;-86
2022/05/21 06:08:00;;;;;;;14.43;2.13;;;15.80;99.90;;;;;;4985927;28;20081;-84
2022/05/21 06:10:48;;;;;;;15.00;2.45;;;16.00;99.90;;;;;;4985524;28;20630;-85
2022/05/21 06:13:14;;;;;;;15.18;2.95;;;16.40;99.90;;;;;;4951896;28;20048;-84
2022/05/21 06:15:40;;;;;;;13.40;3.05;;;16.50;99.90;;;;;;4989704;28;20042;-86
2022/05/21 06:18:11;;;;;;;12.82;2.35;;;16.40;99.90;;;;;;4993490;28;20034;-82
2022/05/21 06:20:38;;;;;;;14.13;3.30;;;16.40;99.90;;;;;;4975497;28;20062;-85
2022/05/21 06:23:04;;;;;;;12.27;2.72;;;16.60;99.90;;;;;;4981856;28;20070;-84
2022/05/21 06:25:33;;;;;;;14.30;2.15;;;16.20;99.90;;;;;;4978677;28;20073;-85
2022/05/21 06:28:00;;;;;;;12.50;2.65;;;16.20;99.90;;;;;;4972869;28;20181;-82
2022/05/21 06:30:27;;;;;;;12.35;2.50;;;16.10;99.90;;;;;;4955807;28;20097;-84
2022/05/21 06:32:54;;;;;;;17.23;3.53;;;16.10;99.90;;;;;;4970056;28;20073;-83
2022/05/21 06:35:20;;;;;;;12.63;2.90;;;16.40;99.90;;;;;;4955140;28;20050;-82
2022/05/21 06:37:46;;;;;;;10.27;1.63;;;16.30;99.90;;;;;;4970522;28;20046;-84
2022/05/21 06:40:13;;;;;;;16.63;2.00;;;16.40;99.90;;;;;;4971554;28;20064;-84
2022/05/21 06:42:39;;;;;;;12.60;2.03;;;16.40;99.90;;;;;;4961420;28;20054;-84
2022/05/21 06:45:05;;;;;;;16.15;2.08;;;16.50;99.90;;;;;;4968715;28;20057;-83
2022/05/21 06:47:31;;;;;;;10.18;2.22;;;16.60;99.90;;;;;;4955309;28;20093;-83
2022/05/21 06:49:59;;;;;;;10.15;1.75;;;16.60;99.90;;;;;;4958916;28;20050;-84
2022/05/21 06:52:26;;;;;;;14.95;2.38;;;16.70;99.90;;;;;;4993879;28;20058;-83
2022/05/21 06:54:53;;;;;;;12.35;2.28;;;16.80;99.90;;;;;;4989491;28;20034;-83
2022/05/21 06:57:19;;;;;;;12.77;2.97;;;16.80;99.90;;;;;;4966829;28;20153;-82
2022/05/21 06:59:49;;;;;;;10.07;3.15;;;16.70;99.90;;;;;;4970211;28;20150;-83
2022/05/21 07:02:15;;;;;;;13.52;3.00;;;16.80;99.90;;;;;;4984103;28;21151;-83
2022/05/21 07:07:35;;;;;;;16.45;2.70;;;16.80;99.90;;;;;;4976223;28;20101;-82
2022/05/21 07:10:08;;;;;;;;;;;16.90;99.90;;;;;;4974909;28;20140;-83
2022/05/21 07:12:35;;;;;;;10.82;1.67;;;16.90;99.90;;;;;;4975991;28;20286;-83
2022/05/21 07:15:07;;;;;;;20.02;3.20;;;17.10;99.90;;;;;;4977748;28;20101;-85
2022/05/21 07:17:33;;;;;;;8.93;1.90;;;17.20;99.90;;;;;;4958858;28;20038;-83
2022/05/21 07:20:06;;;;;;;10.80;1.48;;;17.50;99.90;;;;;;4985586;28;20100;-82
2022/05/21 07:22:33;;;;;;;10.13;1.40;;;17.70;99.90;;;;;;4974812;28;20047;-81
2022/05/21 07:25:01;;;;;;;9.95;1.65;;;18.00;99.90;;;;;;4976061;28;20050;-82
2022/05/21 07:27:28;;;;;;;9.88;1.40;;;18.20;99.90;;;;;;4968370;28;20034;-84
2022/05/21 07:29:53;;;;;;;9.18;1.50;;;18.40;99.90;;;;;;4970585;28;20053;-87
2022/05/21 07:32:24;;;;;;;5.60;1.25;;;18.70;99.90;;;;;;4969352;28;20042;-83
2022/05/21 07:34:57;;;;;;;7.95;1.85;;;18.60;99.90;;;;;;4983309;28;20084;-83
2022/05/21 07:37:22;;;;;;;6.70;1.48;;;18.50;99.90;;;;;;4969106;28;20073;-83
2022/05/21 07:39:48;;;;;;;4.97;1.35;;;18.40;99.90;;;;;;4990068;28;20046;-83
2022/05/21 07:42:14;;;;;;;7.80;1.13;;;18.40;99.90;;;;;;4974130;28;21447;-83
2022/05/21 07:44:39;;;;;;;8.85;1.50;;;18.20;99.90;;;;;;4989484;28;20050;-84
2022/05/21 07:47:05;;;;;;;6.72;1.38;;;18.10;99.90;;;;;;4970015;28;20070;-84
2022/05/21 07:49:30;;;;;;;6.60;1.10;;;17.90;99.90;;;;;;4989304;28;20046;-83
2022/05/21 07:51:58;;;;;;;14.18;1.38;;;17.80;99.90;;;;;;4972558;28;20038;-84
2022/05/21 07:54:24;;;;;;;10.30;1.48;;;17.90;99.90;;;;;;4954371;28;20038;-84
2022/05/21 07:56:49;;;;;;;10.77;1.88;;;18.00;99.90;;;;;;4986223;28;20045;-82
2022/05/21 07:59:15;;;;;;;8.55;1.58;;;18.20;99.90;;;;;;4985199;28;20042;-83
2022/05/21 08:01:40;;;;;;;11.00;1.75;;;18.20;99.90;;;;;;4967982;28;20038;-82
2022/05/21 08:04:06;;;;;;;8.15;1.40;;;18.20;99.90;;;;;;4967792;28;20046;-82
2022/05/21 08:06:31;;;;;;;8.95;1.65;;;18.10;99.90;;;;;;4971259;28;20601;-82
2022/05/21 08:08:58;;;;;;;5.75;0.85;;;18.10;99.90;;;;;;4954647;28;20041;-84
2022/05/21 08:11:24;;;;;;;9.05;1.33;;;17.90;99.90;;;;;;4970736;28;20045;-84
2022/05/21 08:13:49;;;;;;;10.30;2.20;;;18.00;99.90;;;;;;4969830;28;20034;-84
2022/05/21 08:16:15;;;;;;;10.57;1.58;;;18.00;99.90;;;;;;4984887;28;20409;-83
2022/05/21 08:18:41;;;;;;;4.93;1.23;;;18.30;99.90;;;;;;4970439;28;20056;-82
2022/05/21 08:21:07;;;;;;;9.07;2.00;;;18.50;99.90;;;;;;4970971;28;20189;-82
2022/05/21 08:29:00;;;;;;;6.60;1.33;;;18.90;99.90;;;;;;4982462;28;20453;-83
2022/05/21 08:31:26;;;;;;;7.47;0.98;;;18.90;99.90;;;;;;4969180;28;20038;-85
2022/05/21 08:33:52;;;;;;;6.93;1.30;;;18.90;99.90;;;;;;4958692;28;20034;-83
2022/05/21 08:36:19;;;;;;;6.55;1.88;;;18.90;99.90;;;;;;4969528;28;20149;-83
2022/05/21 08:38:45;;;;;;;13.25;2.10;;;19.00;99.90;;;;;;4971862;28;20137;-83
2022/05/21 08:41:21;;;;;;;6.22;1.50;;;19.10;99.90;;;;;;4968467;28;20097;-84
2022/05/21 08:43:53;;;;;;;9.25;1.80;;;19.30;99.90;;;;;;4986578;28;20073;-82
2022/05/21 08:46:23;;;;;;;7.85;1.85;;;19.30;99.90;;;;;;4965036;28;20035;-84
2022/05/21 08:49:30;;;;;;;9.00;1.45;;;19.30;99.90;;;;;;4969167;28;20101;-83
2022/05/21 08:52:14;;;;;;;8.10;1.17;;;19.50;99.90;;;;;;4956495;28;20077;-84
2022/05/21 08:54:43;;;;;;;7.38;1.52;;;19.70;99.90;;;;;;4969761;28;20051;-82
2022/05/21 08:57:53;;;;;;;6.93;1.40;;;19.70;99.90;;;;;;4983580;28;20073;-82
2022/05/21 09:00:23;;;;;;;7.70;1.67;;;19.40;99.90;;;;;;4968512;28;20153;-83
2022/05/21 09:02:50;;;;;;;9.63;1.80;;;19.10;99.90;;;;;;4969791;28;20042;-82
2022/05/21 09:05:18;;;;;;;5.97;1.35;;;19.40;99.90;;;;;;4967155;28;20050;-83
2022/05/21 09:08:07;;;;;;;8.77;1.33;;;19.50;99.90;;;;;;4985649;28;20691;-83
2022/05/21 09:10:53;;;;;;;5.60;1.17;;;19.30;99.90;;;;;;4970532;28;20510;-82
2022/05/21 09:13:31;;;;;;;9.63;1.45;;;19.30;99.90;;;;;;4968497;28;20092;-82
2022/05/21 09:18:41;;;;;;;11.98;2.40;;;19.90;99.90;;;;;;4970344;28;20120;-82
2022/05/21 09:21:15;;;;;;;5.35;1.20;;;20.00;99.90;;;;;;4983647;28;20436;-82
2022/05/21 09:23:57;;;;;;;9.00;1.40;;;19.70;99.90;;;;;;4982725;28;20085;-82
2022/05/21 09:26:26;;;;;;;7.10;1.25;;;19.40;99.90;;;;;;4982769;28;20136;-83
2022/05/21 09:28:52;;;;;;;8.45;2.30;;;19.40;99.90;;;;;;4965457;28;20705;-83
2022/05/21 09:31:29;;;;;;;5.43;1.20;;;19.60;99.90;;;;;;4969287;28;20042;-83
2022/05/21 09:33:55;;;;;;;8.30;1.77;;;19.50;99.90;;;;;;4973004;28;20058;-83
2022/05/21 09:36:32;;;;;;;7.85;1.23;;;19.40;99.90;;;;;;4968494;28;20093;-82
2022/05/21 09:38:58;;;;;;;10.88;1.80;;;19.10;99.90;;;;;;4968023;28;20665;-84
2022/05/21 09:41:27;;;;;;;9.00;1.42;;;19.00;99.90;;;;;;4963615;28;20093;-84
2022/05/21 09:46:42;;;;;;;8.38;1.17;;;19.40;99.90;;;;;;4959142;28;20532;-82
2022/05/21 09:49:23;;;;;;;7.10;1.20;;;19.80;99.90;;;;;;4968449;28;20120;-83
2022/05/21 09:51:57;;;;;;;11.10;1.20;;;19.80;99.90;;;;;;4970201;28;20030;-82
2022/05/21 09:54:33;;;;;;;11.35;2.10;;;19.70;99.90;;;;;;4984247;28;20050;-82
2022/05/21 09:57:19;;;;;;;;;;;19.60;99.90;;;;;;4970159;28;20153;-83
2022/05/21 10:00:01;;;;;;;8.10;1.38;;;19.50;99.90;;;;;;5009864;28;19922;-85
2022/05/21 10:02:48;;;;;;;12.35;1.52;;;19.60;99.90;;;;;;4998216;28;20042;-84
2022/05/21 10:05:37;;;;;;;7.68;1.63;;;19.40;99.90;;;;;;4994434;28;20038;-82
2022/05/21 10:11:30;;;;;;;10.05;1.95;;;19.30;99.90;;;;;;4973816;28;20057;-83
2022/05/21 10:14:28;;;;;;;6.60;1.40;;;19.30;99.90;;;;;;4989996;28;20042;-83
2022/05/21 10:17:02;;;;;;;8.45;0.90;;;19.20;99.90;;;;;;4977221;28;20078;-83
2022/05/21 10:19:40;;;;;;;7.68;0.90;;;19.00;99.90;;;;;;4978755;28;20046;-83
2022/05/21 10:22:26;;;;;;;20.92;2.65;;;19.00;99.90;;;;;;4960323;28;20077;-84
2022/05/21 10:24:54;;;;;;;;;;;19.10;99.90;;;;;;4956119;28;20046;-84
2022/05/21 10:27:44;;;;;;;9.70;1.30;;;19.40;99.90;;;;;;4993386;28;20517;-83
2022/05/21 10:30:55;;;;;;;6.90;1.20;;;19.60;99.90;;;;;;4972075;28;20062;-83
2022/05/21 10:33:40;;;;;;;7.20;2.08;;;19.50;99.90;;;;;;4977690;28;20054;-83
2022/05/21 10:36:29;;;;;;;8.80;2.42;;;19.20;99.90;;;;;;4960406;28;20636;-83
2022/05/21 10:39:10;;;;;;;6.68;1.00;;;19.00;99.90;;;;;;4977293;28;20053;-82
2022/05/21 10:41:53;;;;;;;7.13;1.23;;;18.90;99.90;;;;;;4995505;28;20048;-82
2022/05/21 10:44:51;;;;;;;28.90;1.95;;;18.80;99.90;;;;;;4963163;28;20416;-83
2022/05/21 10:47:41;;;;;;;8.15;1.75;;;18.80;99.90;;;;;;4995612;28;20042;-83
2022/05/21 10:50:26;;;;;;;8.60;2.08;;;19.50;99.90;;;;;;4956756;28;20073;-81
2022/05/21 10:53:04;;;;;;;8.48;1.48;;;19.70;99.90;;;;;;4973840;28;20062;-83
2022/05/21 10:56:01;;;;;;;4.38;0.90;;;19.60;99.90;;;;;;4995258;28;20045;-82
2022/05/21 10:58:45;;;;;;;7.03;1.27;;;19.50;99.90;;;;;;4977584;28;20120;-83
2022/05/21 11:01:46;;;;;;;8.43;1.00;;;19.60;99.90;;;;;;4976656;28;20262;-81
2022/05/21 11:04:49;;;;;;;8.40;1.48;;;19.70;99.90;;;;;;4993723;28;20098;-83
2022/05/21 11:07:26;;;;;;;5.55;1.08;;;19.90;99.90;;;;;;4976842;28;20046;-83
2022/05/21 11:10:05;;;;;;;7.50;2.05;;;20.00;99.90;;;;;;4992499;28;20043;-83
2022/05/21 11:12:44;;;;;;;16.90;2.50;;;19.80;99.90;;;;;;4995755;28;20057;-83
2022/05/21 11:15:23;;;;;;;8.70;1.13;;;19.70;99.90;;;;;;4978474;28;20074;-84
2022/05/21 11:17:59;;;;;;;5.57;0.90;;;19.60;99.90;;;;;;4977669;28;20053;-84
2022/05/21 11:20:52;;;;;;;;;;;19.50;99.90;;;;;;4975447;28;20102;-86
2022/05/21 11:23:26;;;;;;;7.43;1.67;;;19.30;99.90;;;;;;4955376;28;20430;-84
2022/05/21 11:26:33;;;;;;;9.23;1.17;;;19.20;99.90;;;;;;4965827;28;20043;-86
2022/05/21 11:29:24;;;;;;;4.53;0.98;;;19.10;99.90;;;;;;4988698;28;20065;-84
2022/05/21 11:37:39;;;;;;;9.05;2.15;;;19.60;99.90;;;;;;4970149;28;20078;-83
2022/05/21 11:40:08;;;;;;;7.18;1.00;;;19.80;99.90;;;;;;4974030;28;20093;-85
2022/05/21 11:42:36;;;;;;;9.85;1.27;;;20.00;99.90;;;;;;4971477;28;20050;-83
2022/05/21 11:45:22;;;;;;;6.80;1.33;;;20.10;99.90;;;;;;4985265;28;20117;-84
2022/05/21 11:47:54;;;;;;;10.65;0.98;;;20.30;99.90;;;;;;4949910;28;20050;-83
2022/05/21 11:50:29;;;;;;;8.65;1.00;;;20.30;99.40;;;;;;4972761;28;20078;-84
2022/05/21 11:53:08;;;;;;;6.35;1.15;;;20.30;97.90;;;;;;4959002;28;20485;-83
2022/05/21 11:55:55;;;;;;;10.77;1.30;;;20.20;99.90;;;;;;4975411;28;20045;-83
2022/05/21 11:58:26;;;;;;;10.05;1.83;;;20.10;99.90;;;;;;4995065;28;20060;-85
2022/05/21 12:00:51;;;;;;;7.95;1.25;;;20.10;99.90;;;;;;4982034;28;20059;-84
2022/05/21 12:03:47;;;;;;;8.98;2.00;;;20.30;99.90;;;;;;4978955;28;20054;-83
2022/05/21 12:06:28;;;;;;;9.67;1.10;;;20.50;99.90;;;;;;4971422;28;20068;-84
2022/05/21 12:13:22;;;;;;;7.50;1.30;;;20.40;99.90;;;;;;4989797;28;20066;-83
2022/05/21 12:15:52;;;;;;;6.93;1.08;;;20.30;99.90;;;;;;4984190;28;20093;-84
2022/05/21 12:18:38;;;;;;;7.20;1.10;;;20.30;99.90;;;;;;4972685;28;20042;-83
2022/05/21 12:21:06;;;;;;;8.98;1.67;;;20.60;99.90;;;;;;4975896;28;20042;-83
2022/05/21 12:23:32;;;;;;;12.35;1.90;;;21.00;99.90;;;;;;4972113;28;20528;-84
2022/05/21 12:26:12;;;;;;;10.40;1.10;;;20.90;99.10;;;;;;4981638;28;20035;-83
2022/05/21 12:28:47;;;;;;;8.60;1.17;;;20.70;98.50;;;;;;4965378;28;20051;-83
2022/05/21 12:31:45;;;;;;;9.23;1.58;;;20.50;98.10;;;;;;4971592;28;20121;-84
2022/05/21 12:34:28;;;;;;;5.60;0.85;;;20.10;99.00;;;;;;4980622;28;20125;-83
2022/05/21 12:37:30;;;;;;;10.27;1.20;;;19.90;99.80;;;;;;4963118;28;20565;-83
2022/05/21 12:40:09;;;;;;;16.23;1.50;;;19.80;99.90;;;;;;4981398;28;20089;-84
2022/05/21 12:43:01;;;;;;;6.95;1.25;;;19.70;99.90;;;;;;4966686;28;20038;-88
2022/05/21 12:45:36;;;;;;;10.15;0.95;;;19.60;99.90;;;;;;4967167;28;20054;-85
2022/05/21 12:48:10;;;;;;;4.22;1.35;;;19.70;99.90;;;;;;4989047;28;20042;-85
2022/05/21 12:50:55;;;;;;;4.00;1.20;;;19.50;99.90;;;;;;4967371;28;20117;-84
2022/05/21 12:53:44;;;;;;;9.23;1.75;;;19.40;99.90;;;;;;4983644;28;20054;-83
2022/05/21 12:56:40;;;;;;;2.72;0.57;;;19.30;99.90;;;;;;4952478;28;20038;-84
2022/05/21 12:59:18;;;;;;;5.90;1.02;;;19.10;99.90;;;;;;4941160;28;20501;-83
2022/05/21 13:02:14;;;;;;;3.25;0.88;;;19.10;99.90;;;;;;4967499;28;20058;-84
2022/05/21 13:04:43;;;;;;;8.98;1.45;;;19.10;99.90;;;;;;4974255;28;20066;-83
2022/05/21 13:07:38;;;;;;;4.72;0.95;;;19.00;99.90;;;;;;4981296;28;20034;-84
2022/05/21 13:10:26;;;;;;;10.57;2.42;;;19.40;99.90;;;;;;4974284;28;20105;-83
2022/05/21 13:13:10;;;;;;;18.52;3.28;;;19.80;99.90;;;;;;4974050;28;20097;-84
2022/05/21 13:15:46;;;;;;;8.60;1.05;;;20.00;99.90;;;;;;4991980;28;20046;-84
2022/05/21 13:18:20;;;;;;;13.73;1.80;;;19.90;99.90;;;;;;4993353;28;20018;-83
2022/05/21 13:20:55;;;;;;;5.85;1.27;;;19.80;99.90;;;;;;4976345;28;20082;-83
2022/05/21 13:23:44;;;;;;;8.45;1.88;;;19.80;99.90;;;;;;4972959;28;20043;-83
2022/05/21 13:26:20;;;;;;;6.25;1.40;;;19.70;99.90;;;;;;4970070;28;20685;-84
2022/05/21 13:28:46;;;;;;;5.95;1.00;;;19.80;99.90;;;;;;4989044;28;20050;-84
2022/05/21 13:31:21;;;;;;;2.67;0.52;;;20.00;99.90;;;;;;4971510;28;20096;-81
2022/05/21 13:33:54;;;;;;;6.43;1.83;;;20.10;99.90;;;;;;4990985;28;20037;-83
2022/05/21 13:36:29;;;;;;;7.38;0.60;;;20.30;96.60;;;;;;4985439;28;20074;-83
2022/05/21 13:38:56;;;;;;;7.32;0.90;;;20.40;96.30;;;;;;4989457;28;20477;-82
2022/05/21 13:41:33;;;;;;;4.10;0.32;;;20.10;95.50;;;;;;4985504;28;20042;-81
2022/05/21 13:44:01;;;;;;;7.13;0.77;;;19.90;95.70;;;;;;4969975;28;20038;-82